Time;durP1;ratioP1;P1;durP2;ratioP2;P2;SDS_P1;SDS_P2;PMS_P1;PMS_P2;Temp;Humidity;BMP_temperature;BMP_pressure;BME280_temperature;BME280_humidity;BME280_pressure;Samples;Min_cycle;Max_cycle;Signal;HPM_P1;HPM_P2
2021/10/19 00:00:45;;;;;;;1.00;1.00;;;;;;;;;;7329446;19;153606;-12
2021/10/19 00:03:12;;;;;;;0.90;0.90;;;;;;;;;;7333433;19;161983;-12
2021/10/19 00:05:40;;;;;;;1.10;0.90;;;;;;;;;;7331326;19;162555;-12
2021/10/19 00:08:08;;;;;;;0.82;0.82;;;;;;;;;;7333627;19;154049;-12
2021/10/19 00:10:36;;;;;;;0.80;0.80;;;;;;;;;;7327344;19;153522;-12
2021/10/19 00:13:04;;;;;;;0.90;0.90;;;;;;;;;;7325551;19;162005;-11
2021/10/19 00:15:32;;;;;;;1.00;1.00;;;;;;;;;;7329086;19;162598;-12
2021/10/19 00:18:00;;;;;;;0.82;0.82;;;;;;;;;;7329886;19;153994;-12
2021/10/19 00:20:28;;;;;;;0.85;0.85;;;;;;;;;;7326891;19;153534;-12
2021/10/19 00:22:56;;;;;;;0.70;0.70;;;;;;;;;;7331669;19;162107;-12
2021/10/19 00:25:24;;;;;;;0.85;0.85;;;;;;;;;;7332098;19;162378;-12
2021/10/19 00:27:52;;;;;;;0.80;0.80;;;;;;;;;;7333743;19;154255;-12
2021/10/19 00:30:21;;;;;;;0.98;0.70;;;;;;;;;;7330615;19;153535;-12
2021/10/19 00:32:48;;;;;;;0.90;0.90;;;;;;;;;;7328818;19;162623;-12
2021/10/19 00:35:16;;;;;;;0.70;0.70;;;;;;;;;;7331189;19;162586;-12
2021/10/19 00:37:44;;;;;;;0.73;0.73;;;;;;;;;;7333813;19;154001;-13
2021/10/19 00:40:13;;;;;;;0.70;0.70;;;;;;;;;;7331329;19;153519;-12
2021/10/19 00:42:41;;;;;;;0.90;0.90;;;;;;;;;;7332449;19;161843;-11
2021/10/19 00:45:09;;;;;;;0.73;0.73;;;;;;;;;;7331315;19;162341;-12
2021/10/19 00:47:46;;;;;;;0.80;0.80;;;;;;;;;;7325930;19;154095;-11
2021/10/19 00:50:15;;;;;;;3.33;1.13;;;;;;;;;;7328980;19;153491;-12
2021/10/19 09:14:19;;;;;;;0.50;0.50;;;;;;;;;;7369771;19;132792;-15
2021/10/19 09:16:52;;;;;;;0.60;0.60;;;;;;;;;;7368254;19;154053;-12
2021/10/19 09:19:21;;;;;;;0.60;0.60;;;;;;;;;;7364990;19;162124;-13
2021/10/19 09:21:51;;;;;;;0.43;0.40;;;;;;;;;;7360853;19;162689;-15
2021/10/19 09:24:25;;;;;;;0.50;0.50;;;;;;;;;;7365042;19;153935;-15
2021/10/19 09:26:59;;;;;;;0.40;0.40;;;;;;;;;;7363594;19;153580;-12
2021/10/19 09:29:30;;;;;;;0.50;0.50;;;;;;;;;;7363444;19;162100;-14
2021/10/19 09:32:01;;;;;;;0.50;0.50;;;;;;;;;;7363139;19;162730;-14
2021/10/19 09:34:32;;;;;;;0.60;0.60;;;;;;;;;;7363618;19;153938;-12
2021/10/19 09:37:03;;;;;;;0.63;0.52;;;;;;;;;;7364463;19;153617;-13
2021/10/19 09:39:36;;;;;;;0.60;0.60;;;;;;;;;;7367378;19;162157;-15
2021/10/19 09:42:10;;;;;;;0.50;0.50;;;;;;;;;;7363502;19;162546;-13
2021/10/19 09:44:49;;;;;;;0.55;0.55;;;;;;;;;;7362456;19;154119;-16
2021/10/19 09:47:17;;;;;;;0.52;0.52;;;;;;;;;;7366283;19;153567;-13
2021/10/19 09:49:47;;;;;;;0.52;0.52;;;;;;;;;;7363148;19;162115;-14
2021/10/19 09:52:16;;;;;;;0.40;0.40;;;;;;;;;;7362050;19;162208;-16
2021/10/19 09:54:48;;;;;;;1.08;0.50;;;;;;;;;;7364238;19;153949;-14
2021/10/19 09:57:17;;;;;;;2.25;0.60;;;;;;;;;;7361022;19;153612;-14
2021/10/19 09:59:46;;;;;;;0.45;0.45;;;;;;;;;;7358357;19;161968;-16
2021/10/19 10:02:15;;;;;;;0.63;0.50;;;;;;;;;;7358554;19;162522;-15
2021/10/19 10:04:44;;;;;;;0.40;0.40;;;;;;;;;;7362655;19;153970;-15
2021/10/19 10:07:14;;;;;;;0.65;0.50;;;;;;;;;;7361108;19;153793;-14
2021/10/19 10:09:42;;;;;;;0.50;0.50;;;;;;;;;;7362165;19;161923;-14
2021/10/19 10:12:10;;;;;;;0.60;0.60;;;;;;;;;;7361313;19;162643;-14
2021/10/19 10:14:49;;;;;;;1.10;0.50;;;;;;;;;;7337113;19;153850;-16
2021/10/19 10:17:17;;;;;;;0.50;0.50;;;;;;;;;;7329098;19;153586;-14
2021/10/19 10:19:46;;;;;;;2.50;0.60;;;;;;;;;;7332064;19;161809;-15
2021/10/19 10:22:25;;;;;;;0.50;0.50;;;;;;;;;;7333072;19;162664;-13
2021/10/19 10:25:08;;;;;;;0.43;0.43;;;;;;;;;;7329499;19;154306;-14
2021/10/19 10:27:38;;;;;;;0.50;0.50;;;;;;;;;;7332372;19;154530;-14
2021/10/19 10:30:19;;;;;;;0.68;0.50;;;;;;;;;;7333004;19;161829;-15
2021/10/19 10:32:48;;;;;;;0.63;0.50;;;;;;;;;;7331689;19;162616;-15
2021/10/19 10:35:19;;;;;;;0.40;0.40;;;;;;;;;;7331823;19;154003;-14
2021/10/19 10:37:54;;;;;;;0.40;0.40;;;;;;;;;;7337483;19;153658;-14
2021/10/19 10:40:31;;;;;;;0.40;0.40;;;;;;;;;;7330923;19;161793;-13
2021/10/19 10:43:18;;;;;;;0.43;0.43;;;;;;;;;;7333125;19;162369;-15
2021/10/19 10:46:08;;;;;;;1.08;0.50;;;;;;;;;;7329377;19;154262;-13
2021/10/19 10:48:37;;;;;;;0.50;0.50;;;;;;;;;;7331975;19;153920;-15
2021/10/19 10:51:08;;;;;;;0.47;0.40;;;;;;;;;;7328440;19;162147;-14
2021/10/19 10:53:37;;;;;;;0.50;0.50;;;;;;;;;;7333067;19;162454;-13
2021/10/19 10:56:07;;;;;;;0.50;0.50;;;;;;;;;;7329718;19;154002;-11
2021/10/19 10:58:38;;;;;;;0.40;0.40;;;;;;;;;;7333605;19;153596;-15
2021/10/19 11:01:21;;;;;;;0.43;0.43;;;;;;;;;;7332014;19;161877;-13
2021/10/19 11:03:52;;;;;;;0.40;0.40;;;;;;;;;;7325529;19;162621;-18
2021/10/19 11:06:23;;;;;;;1.23;0.50;;;;;;;;;;7330194;19;153928;-16
2021/10/19 11:09:00;;;;;;;0.52;0.52;;;;;;;;;;7332714;19;153552;-13
2021/10/19 11:11:37;;;;;;;0.50;0.50;;;;;;;;;;7332945;19;162154;-14
2021/10/19 11:14:08;;;;;;;0.50;0.50;;;;;;;;;;7327325;19;162351;-16
2021/10/19 11:16:42;;;;;;;;;;;;;;;;;;7334460;19;154075;-13
2021/10/19 11:19:23;;;;;;;0.57;0.57;;;;;;;;;;7334136;19;153476;-15
2021/10/19 11:21:57;;;;;;;0.38;0.38;;;;;;;;;;7334568;19;162206;-15
2021/10/19 11:24:28;;;;;;;0.50;0.50;;;;;;;;;;7329759;19;162512;-15
2021/10/19 11:27:00;;;;;;;1.15;0.60;;;;;;;;;;7334094;19;154050;-24
2021/10/19 11:29:37;;;;;;;0.60;0.60;;;;;;;;;;7334082;19;153669;-15
2021/10/19 11:32:10;;;;;;;0.57;0.57;;;;;;;;;;7331601;19;162539;-24
2021/10/19 11:34:39;;;;;;;0.60;0.60;;;;;;;;;;7333319;19;162389;-15
2021/10/19 11:37:07;;;;;;;0.70;0.70;;;;;;;;;;7329377;19;154094;-19
2021/10/19 11:39:35;;;;;;;0.40;0.40;;;;;;;;;;7329808;19;153810;-14
2021/10/19 11:42:04;;;;;;;1.13;0.73;;;;;;;;;;7326659;19;161931;-13
2021/10/19 11:44:36;;;;;;;0.43;0.43;;;;;;;;;;7326479;19;162426;-13
2021/10/19 11:47:05;;;;;;;0.40;0.40;;;;;;;;;;7329479;19;154358;-14
2021/10/19 11:49:40;;;;;;;0.40;0.40;;;;;;;;;;7329212;19;153658;-15
2021/10/19 11:52:08;;;;;;;0.73;0.55;;;;;;;;;;7327941;19;161873;-15
2021/10/19 11:54:37;;;;;;;0.43;0.43;;;;;;;;;;7329323;19;162444;-15
2021/10/19 11:57:10;;;;;;;0.50;0.50;;;;;;;;;;7332092;19;153973;-16
2021/10/19 11:59:48;;;;;;;0.50;0.50;;;;;;;;;;7329350;19;153550;-16
2021/10/19 12:02:18;;;;;;;0.43;0.43;;;;;;;;;;7329503;19;161875;-15
2021/10/19 12:04:47;;;;;;;0.45;0.45;;;;;;;;;;7325618;19;162742;-16
2021/10/19 12:07:27;;;;;;;1.65;0.50;;;;;;;;;;7328541;19;154108;-16
2021/10/19 12:09:55;;;;;;;0.50;0.50;;;;;;;;;;7332212;19;153476;-16
2021/10/19 12:12:27;;;;;;;0.40;0.40;;;;;;;;;;7330783;19;161882;-15
2021/10/19 12:14:56;;;;;;;0.52;0.47;;;;;;;;;;7328345;19;162654;-15
2021/10/19 12:17:24;;;;;;;0.40;0.40;;;;;;;;;;7326746;19;154047;-16
2021/10/19 12:20:08;;;;;;;0.50;0.50;;;;;;;;;;7329774;19;153556;-14
2021/10/19 12:22:37;;;;;;;0.45;0.45;;;;;;;;;;7324936;19;161919;-18
2021/10/19 12:25:06;;;;;;;0.50;0.50;;;;;;;;;;7328479;19;162387;-16
2021/10/19 12:27:36;;;;;;;0.85;0.30;;;;;;;;;;7328757;19;154045;-17
2021/10/19 12:30:24;;;;;;;0.47;0.40;;;;;;;;;;7329673;19;153701;-14
2021/10/19 12:32:56;;;;;;;0.35;0.35;;;;;;;;;;7329294;19;161810;-14
2021/10/19 12:35:25;;;;;;;0.32;0.32;;;;;;;;;;7328809;19;162432;-16
2021/10/19 12:37:55;;;;;;;1.38;0.52;;;;;;;;;;7333183;19;154093;-13
2021/10/19 12:40:23;;;;;;;1.00;0.60;;;;;;;;;;7330372;19;153844;-14
2021/10/19 12:42:51;;;;;;;0.60;0.60;;;;;;;;;;7325939;19;161873;-16
2021/10/19 12:45:20;;;;;;;0.40;0.40;;;;;;;;;;7329645;19;162477;-17
2021/10/19 12:47:48;;;;;;;0.40;0.40;;;;;;;;;;7331175;19;155557;-16
2021/10/19 12:50:16;;;;;;;0.38;0.38;;;;;;;;;;7333394;19;153762;-14
2021/10/19 12:52:44;;;;;;;0.50;0.50;;;;;;;;;;7333996;19;161758;-16
2021/10/19 12:55:12;;;;;;;0.30;0.30;;;;;;;;;;7331582;19;162606;-13
2021/10/19 12:57:40;;;;;;;0.40;0.40;;;;;;;;;;7332139;19;153960;-15
2021/10/19 13:00:09;;;;;;;0.90;0.50;;;;;;;;;;7333470;19;153563;-14
2021/10/19 13:02:38;;;;;;;0.50;0.50;;;;;;;;;;7331919;19;162055;-13
2021/10/19 13:05:07;;;;;;;0.47;0.47;;;;;;;;;;7330861;19;162489;-15
2021/10/19 13:07:35;;;;;;;0.38;0.38;;;;;;;;;;7329914;19;154258;-16
2021/10/19 13:10:04;;;;;;;0.40;0.40;;;;;;;;;;7332837;19;153724;-15
2021/10/19 13:12:32;;;;;;;1.75;0.55;;;;;;;;;;7328188;19;161844;-14
2021/10/19 13:15:01;;;;;;;0.40;0.40;;;;;;;;;;7328958;19;162577;-16
2021/10/19 13:17:29;;;;;;;0.50;0.40;;;;;;;;;;7329502;19;154113;-15
2021/10/19 13:19:57;;;;;;;0.40;0.40;;;;;;;;;;7328537;19;153729;-16
2021/10/19 13:22:25;;;;;;;0.32;0.32;;;;;;;;;;7331700;19;162036;-16
2021/10/19 13:24:53;;;;;;;0.50;0.50;;;;;;;;;;7325515;19;162691;-14
2021/10/19 13:27:23;;;;;;;0.40;0.40;;;;;;;;;;7328878;19;153966;-15
2021/10/19 13:29:53;;;;;;;0.55;0.55;;;;;;;;;;7329084;19;153748;-15
2021/10/19 13:32:21;;;;;;;0.50;0.50;;;;;;;;;;7331853;19;161836;-16
2021/10/19 13:34:49;;;;;;;0.55;0.40;;;;;;;;;;7328271;19;162630;-16
2021/10/19 13:37:18;;;;;;;0.52;0.52;;;;;;;;;;7328509;19;154235;-17
2021/10/19 13:39:46;;;;;;;0.40;0.40;;;;;;;;;;7327441;19;153816;-17
2021/10/19 13:42:14;;;;;;;0.40;0.40;;;;;;;;;;7326971;19;161952;-13
2021/10/19 13:44:43;;;;;;;0.30;0.30;;;;;;;;;;7326248;19;162354;-25
2021/10/19 13:47:11;;;;;;;0.50;0.50;;;;;;;;;;7328331;19;153980;-13
2021/10/19 13:49:39;;;;;;;0.68;0.50;;;;;;;;;;7331984;19;153649;-16
2021/10/19 13:52:07;;;;;;;0.40;0.40;;;;;;;;;;7333633;19;161981;-14
2021/10/19 13:54:36;;;;;;;0.40;0.40;;;;;;;;;;7334692;19;162427;-16
2021/10/19 13:57:04;;;;;;;0.30;0.30;;;;;;;;;;7333863;19;154080;-15
2021/10/19 13:59:32;;;;;;;0.40;0.40;;;;;;;;;;7334911;19;153662;-19
2021/10/19 14:02:00;;;;;;;0.50;0.50;;;;;;;;;;7334366;19;162019;-15
2021/10/19 14:04:29;;;;;;;0.40;0.40;;;;;;;;;;7332955;19;162451;-16
2021/10/19 14:06:57;;;;;;;0.40;0.40;;;;;;;;;;7333287;19;153987;-15
2021/10/19 14:09:27;;;;;;;0.40;0.40;;;;;;;;;;7333526;19;153639;-14
2021/10/19 14:11:56;;;;;;;0.40;0.40;;;;;;;;;;7333613;19;162044;-17
2021/10/19 14:14:25;;;;;;;0.50;0.50;;;;;;;;;;7332950;19;162531;-16
2021/10/19 14:16:54;;;;;;;0.40;0.40;;;;;;;;;;7334429;19;154217;-15
2021/10/19 14:19:23;;;;;;;0.40;0.40;;;;;;;;;;7334359;19;153623;-15
2021/10/19 14:21:53;;;;;;;0.40;0.40;;;;;;;;;;7332884;19;161844;-13
2021/10/19 14:24:22;;;;;;;0.40;0.40;;;;;;;;;;7332678;19;162644;-13
2021/10/19 14:26:50;;;;;;;0.40;0.40;;;;;;;;;;7332854;19;154391;-14
2021/10/19 14:29:19;;;;;;;0.40;0.40;;;;;;;;;;7333103;19;153657;-15
2021/10/19 14:31:49;;;;;;;0.50;0.50;;;;;;;;;;7333537;19;161979;-15
2021/10/19 14:34:20;;;;;;;0.30;0.30;;;;;;;;;;7332737;19;162511;-14
2021/10/19 14:36:51;;;;;;;0.30;0.30;;;;;;;;;;7333920;19;154527;-14
2021/10/19 14:39:23;;;;;;;0.40;0.40;;;;;;;;;;7332687;19;153787;-17
2021/10/19 14:41:52;;;;;;;0.30;0.30;;;;;;;;;;7332267;19;162247;-17
2021/10/19 14:44:21;;;;;;;0.40;0.40;;;;;;;;;;7332472;19;162447;-16
2021/10/19 14:46:49;;;;;;;0.30;0.30;;;;;;;;;;7332842;19;153779;-15
2021/10/19 14:49:18;;;;;;;0.75;0.30;;;;;;;;;;7332407;19;153773;-14
2021/10/19 14:51:48;;;;;;;0.40;0.40;;;;;;;;;;7332258;19;162156;-14
2021/10/19 14:54:17;;;;;;;0.40;0.40;;;;;;;;;;7333115;19;162363;-14
2021/10/19 14:56:45;;;;;;;0.50;0.50;;;;;;;;;;7333431;19;154125;-16
2021/10/19 14:59:14;;;;;;;0.30;0.30;;;;;;;;;;7332358;19;153693;-15
2021/10/19 15:01:42;;;;;;;0.40;0.40;;;;;;;;;;7332901;19;162087;-18
2021/10/19 15:04:10;;;;;;;0.40;0.40;;;;;;;;;;7332296;19;162627;-15
2021/10/19 15:06:38;;;;;;;0.43;0.43;;;;;;;;;;7333084;19;154115;-16
2021/10/19 15:09:07;;;;;;;0.40;0.40;;;;;;;;;;7331886;19;153696;-16
2021/10/19 15:11:35;;;;;;;0.30;0.30;;;;;;;;;;7331480;19;161951;-14
2021/10/19 15:14:04;;;;;;;0.32;0.32;;;;;;;;;;7329834;19;163049;-14
2021/10/19 15:16:32;;;;;;;0.50;0.50;;;;;;;;;;7333031;19;153971;-17
2021/10/19 15:19:00;;;;;;;0.40;0.40;;;;;;;;;;7331583;19;153533;-16
2021/10/19 15:21:29;;;;;;;0.50;0.50;;;;;;;;;;7332446;19;161775;-13
2021/10/19 15:23:57;;;;;;;0.40;0.40;;;;;;;;;;7331901;19;162929;-15
2021/10/19 15:26:26;;;;;;;0.38;0.38;;;;;;;;;;7331605;19;154056;-15
2021/10/19 15:28:55;;;;;;;0.90;0.60;;;;;;;;;;7331166;19;153661;-16
2021/10/19 15:31:23;;;;;;;0.65;0.65;;;;;;;;;;7330122;19;161976;-15
2021/10/19 15:33:52;;;;;;;1.00;0.68;;;;;;;;;;7332738;19;162439;-17
2021/10/19 15:36:20;;;;;;;0.77;0.60;;;;;;;;;;7334304;19;154074;-16
2021/10/19 15:38:48;;;;;;;0.60;0.60;;;;;;;;;;7335026;19;153646;-18
2021/10/19 15:41:17;;;;;;;0.50;0.50;;;;;;;;;;7334272;19;162006;-14
2021/10/19 15:43:45;;;;;;;0.50;0.50;;;;;;;;;;7334639;19;162490;-15
2021/10/19 15:46:13;;;;;;;0.60;0.60;;;;;;;;;;7330784;19;153985;-15
2021/10/19 15:48:42;;;;;;;0.60;0.60;;;;;;;;;;7334386;19;153817;-16
2021/10/19 15:51:12;;;;;;;0.50;0.50;;;;;;;;;;7330656;19;161886;-16
2021/10/19 15:53:40;;;;;;;0.60;0.60;;;;;;;;;;7330777;19;163806;-16
2021/10/19 15:56:08;;;;;;;0.50;0.50;;;;;;;;;;7333545;19;154111;-16
2021/10/19 15:58:39;;;;;;;0.60;0.60;;;;;;;;;;7335366;19;153614;-15
2021/10/19 16:01:09;;;;;;;;;;;;;;;;;;7329600;19;162176;-18
2021/10/19 16:03:38;;;;;;;0.60;0.60;;;;;;;;;;7330109;19;162573;-15
2021/10/19 16:06:06;;;;;;;0.63;0.63;;;;;;;;;;7328777;19;154057;-14
2021/10/19 16:08:34;;;;;;;0.73;0.60;;;;;;;;;;7330667;19;153517;-22
2021/10/19 16:11:03;;;;;;;0.60;0.60;;;;;;;;;;7330277;19;161821;-16
2021/10/19 16:13:31;;;;;;;0.50;0.50;;;;;;;;;;7326632;19;162522;-16
2021/10/19 16:16:01;;;;;;;0.60;0.60;;;;;;;;;;7329878;19;154258;-13
2021/10/19 16:18:31;;;;;;;0.60;0.60;;;;;;;;;;7331846;19;153895;-16
2021/10/19 16:20:59;;;;;;;0.70;0.70;;;;;;;;;;7332601;19;161901;-15
2021/10/19 16:23:29;;;;;;;0.70;0.60;;;;;;;;;;7332358;19;162468;-14
2021/10/19 16:25:57;;;;;;;0.50;0.50;;;;;;;;;;7331613;19;154145;-15
2021/10/19 16:28:25;;;;;;;0.50;0.50;;;;;;;;;;7328786;19;153623;-16
2021/10/19 16:30:54;;;;;;;0.68;0.68;;;;;;;;;;7332240;19;161941;-14
2021/10/19 16:33:26;;;;;;;0.50;0.50;;;;;;;;;;7330724;19;162509;-14
2021/10/19 16:36:03;;;;;;;0.60;0.60;;;;;;;;;;7333269;19;154116;-15
2021/10/19 16:38:33;;;;;;;0.57;0.55;;;;;;;;;;7332617;19;153582;-15
2021/10/19 16:41:01;;;;;;;0.60;0.60;;;;;;;;;;7331333;19;161945;-15
2021/10/19 16:43:30;;;;;;;0.50;0.50;;;;;;;;;;7332646;19;162384;-15
2021/10/19 16:45:59;;;;;;;0.40;0.40;;;;;;;;;;7329475;19;154245;-16
2021/10/19 16:48:28;;;;;;;0.60;0.60;;;;;;;;;;7333575;19;153616;-16
2021/10/19 16:50:57;;;;;;;0.47;0.47;;;;;;;;;;7329136;19;161852;-17
2021/10/19 16:53:25;;;;;;;0.60;0.60;;;;;;;;;;7332384;19;162600;-16
2021/10/19 16:55:54;;;;;;;0.60;0.60;;;;;;;;;;7333148;19;154313;-15
2021/10/19 16:58:22;;;;;;;0.52;0.52;;;;;;;;;;7332571;19;153617;-13
2021/10/19 17:00:51;;;;;;;0.50;0.50;;;;;;;;;;7331839;19;162166;-16
2021/10/19 17:03:20;;;;;;;0.50;0.50;;;;;;;;;;7331651;19;162597;-14
2021/10/19 17:05:48;;;;;;;0.85;0.85;;;;;;;;;;7329816;19;154005;-16
2021/10/19 17:08:16;;;;;;;1.30;1.30;;;;;;;;;;7330496;19;153844;-17
2021/10/19 17:10:45;;;;;;;1.13;1.13;;;;;;;;;;7327242;19;162019;-18
2021/10/19 17:13:17;;;;;;;1.15;1.13;;;;;;;;;;7326690;19;162380;-14
2021/10/19 17:15:50;;;;;;;0.90;0.90;;;;;;;;;;7331716;19;154396;-13
2021/10/19 17:18:19;;;;;;;0.82;0.82;;;;;;;;;;7329696;19;153691;-15
2021/10/19 17:20:53;;;;;;;1.00;1.00;;;;;;;;;;7329241;19;162348;-16
2021/10/19 17:23:25;;;;;;;1.20;1.20;;;;;;;;;;7329883;19;162349;-17
2021/10/19 17:25:55;;;;;;;1.42;1.20;;;;;;;;;;7333160;19;154309;-17
2021/10/19 17:28:24;;;;;;;1.00;1.00;;;;;;;;;;7335370;19;153599;-13
2021/10/19 17:30:57;;;;;;;1.98;1.08;;;;;;;;;;7332481;19;161992;-13
2021/10/19 17:33:29;;;;;;;1.20;1.20;;;;;;;;;;7333193;19;162520;-17
2021/10/19 17:36:02;;;;;;;1.00;1.00;;;;;;;;;;7330479;19;154024;-14
2021/10/19 17:38:30;;;;;;;1.35;1.30;;;;;;;;;;7335329;19;153575;-15
2021/10/19 17:40:59;;;;;;;1.23;1.00;;;;;;;;;;7334140;19;162168;-16
2021/10/19 17:43:28;;;;;;;1.00;1.00;;;;;;;;;;7333859;19;162749;-16
2021/10/19 17:45:56;;;;;;;1.30;1.08;;;;;;;;;;7333115;19;154348;-15
2021/10/19 17:48:24;;;;;;;1.05;1.05;;;;;;;;;;7335388;19;153519;-13
2021/10/19 17:50:53;;;;;;;0.98;0.98;;;;;;;;;;7334889;19;162034;-15
2021/10/19 17:53:21;;;;;;;1.00;1.00;;;;;;;;;;7334815;19;162416;-16
2021/10/19 17:55:50;;;;;;;0.90;0.90;;;;;;;;;;7334101;19;154205;-13
2021/10/19 17:58:19;;;;;;;1.00;1.00;;;;;;;;;;7334991;19;153524;-14
2021/10/19 18:00:47;;;;;;;0.90;0.90;;;;;;;;;;7334614;19;161997;-17
2021/10/19 18:03:16;;;;;;;1.00;1.00;;;;;;;;;;7334393;19;162814;-15
2021/10/19 18:05:45;;;;;;;0.90;0.90;;;;;;;;;;7333850;19;154108;-12
2021/10/19 18:08:14;;;;;;;0.80;0.80;;;;;;;;;;7335942;19;153895;-11
2021/10/19 18:10:43;;;;;;;0.80;0.80;;;;;;;;;;7335188;19;161918;-17
2021/10/19 18:13:12;;;;;;;3.95;0.95;;;;;;;;;;7334922;19;162391;-16
2021/10/19 18:15:40;;;;;;;0.90;0.90;;;;;;;;;;7337411;19;154007;-13
2021/10/19 18:18:09;;;;;;;0.80;0.80;;;;;;;;;;7338081;19;153522;-15
2021/10/19 18:20:38;;;;;;;0.77;0.77;;;;;;;;;;7334038;19;161740;-14
2021/10/19 18:23:09;;;;;;;1.85;0.95;;;;;;;;;;7333815;19;162621;-15
2021/10/19 18:25:38;;;;;;;0.68;0.68;;;;;;;;;;7335258;19;154035;-13
2021/10/19 18:28:06;;;;;;;0.88;0.88;;;;;;;;;;7335501;19;153693;-15
2021/10/19 18:30:35;;;;;;;0.68;0.68;;;;;;;;;;7329845;19;162040;-16
2021/10/19 18:33:03;;;;;;;2.60;1.25;;;;;;;;;;7331661;19;162664;-15
2021/10/19 18:35:32;;;;;;;1.20;1.08;;;;;;;;;;7331819;19;154055;-15
2021/10/19 18:38:00;;;;;;;1.45;1.35;;;;;;;;;;7332694;19;153581;-15
2021/10/19 18:40:29;;;;;;;1.95;1.05;;;;;;;;;;7333493;19;162126;-15
2021/10/19 18:42:57;;;;;;;2.33;1.92;;;;;;;;;;7332310;19;162812;-14
2021/10/19 18:45:26;;;;;;;2.33;1.80;;;;;;;;;;7333279;19;153975;-15
2021/10/19 18:47:55;;;;;;;1.88;1.63;;;;;;;;;;7333475;19;153596;-14
2021/10/19 18:50:25;;;;;;;2.05;1.60;;;;;;;;;;7331768;19;162003;-16
2021/10/19 18:52:53;;;;;;;3.08;2.10;;;;;;;;;;7331775;19;162561;-18
2021/10/19 18:55:22;;;;;;;1.58;1.48;;;;;;;;;;7332302;19;154272;-15
2021/10/19 18:57:51;;;;;;;1.85;1.52;;;;;;;;;;7332072;19;153556;-14
2021/10/19 19:00:20;;;;;;;1.45;1.30;;;;;;;;;;7332819;19;161960;-17
2021/10/19 19:02:49;;;;;;;1.40;1.30;;;;;;;;;;7332599;19;162422;-15
2021/10/19 19:05:17;;;;;;;2.00;1.80;;;;;;;;;;7332844;19;154052;-16
2021/10/19 19:07:45;;;;;;;1.90;1.65;;;;;;;;;;7332893;19;153418;-16
2021/10/19 19:10:13;;;;;;;1.70;1.60;;;;;;;;;;7332393;19;161852;-14
2021/10/19 19:12:42;;;;;;;1.58;1.48;;;;;;;;;;7331225;19;162546;-15
2021/10/19 19:15:18;;;;;;;1.77;1.67;;;;;;;;;;7332350;19;154200;-13
2021/10/19 19:17:46;;;;;;;1.65;1.55;;;;;;;;;;7332294;19;153568;-15
2021/10/19 19:20:15;;;;;;;1.70;1.60;;;;;;;;;;7331474;19;162036;-16
2021/10/19 19:22:50;;;;;;;1.70;1.60;;;;;;;;;;7333222;19;162422;-17
2021/10/19 19:25:20;;;;;;;1.80;1.70;;;;;;;;;;7334013;19;154049;-14
2021/10/19 19:27:50;;;;;;;1.30;1.30;;;;;;;;;;7330718;19;153579;-16
2021/10/19 19:30:19;;;;;;;1.83;1.50;;;;;;;;;;7331875;19;162021;-14
2021/10/19 19:32:50;;;;;;;2.05;1.85;;;;;;;;;;7330624;19;162642;-17
2021/10/19 19:35:18;;;;;;;1.75;1.63;;;;;;;;;;7331049;19;154157;-13
2021/10/19 19:37:49;;;;;;;1.60;1.50;;;;;;;;;;7330752;19;153713;-13
2021/10/19 19:40:23;;;;;;;1.70;1.60;;;;;;;;;;7329122;19;163486;-19
2021/10/19 19:42:53;;;;;;;1.60;1.50;;;;;;;;;;7326316;19;162455;-17
2021/10/19 19:45:22;;;;;;;1.33;1.23;;;;;;;;;;7330179;19;154612;-14
2021/10/19 19:47:50;;;;;;;1.63;1.52;;;;;;;;;;7326156;19;153819;-16
2021/10/19 19:50:22;;;;;;;1.60;1.50;;;;;;;;;;7331151;19;161937;-14
2021/10/19 19:52:53;;;;;;;2.03;1.83;;;;;;;;;;7331004;19;162829;-14
2021/10/19 19:55:22;;;;;;;1.50;1.40;;;;;;;;;;7330866;19;154280;-17
2021/10/19 19:57:54;;;;;;;1.50;1.40;;;;;;;;;;7331260;19;153578;-16
2021/10/19 20:00:26;;;;;;;1.70;1.60;;;;;;;;;;7325701;19;161970;-23
2021/10/19 20:02:55;;;;;;;1.70;1.60;;;;;;;;;;7331025;19;162733;-15
2021/10/19 20:05:24;;;;;;;1.50;1.40;;;;;;;;;;7331164;19;154183;-15
2021/10/19 20:07:52;;;;;;;1.58;1.48;;;;;;;;;;7327358;19;153596;-15
2021/10/19 20:10:20;;;;;;;1.83;1.73;;;;;;;;;;7330652;19;161855;-14
2021/10/19 20:12:49;;;;;;;1.60;1.50;;;;;;;;;;7329946;19;162573;-14
2021/10/19 20:15:18;;;;;;;1.70;1.60;;;;;;;;;;7330755;19;154153;-16
2021/10/19 20:17:47;;;;;;;1.40;1.30;;;;;;;;;;7334331;19;153970;-16
2021/10/19 20:20:15;;;;;;;1.80;1.70;;;;;;;;;;7333797;19;162158;-13
2021/10/19 20:22:44;;;;;;;1.48;1.40;;;;;;;;;;7329893;19;162445;-13
2021/10/19 20:25:14;;;;;;;1.75;1.65;;;;;;;;;;7334135;19;154019;-16
2021/10/19 20:27:42;;;;;;;1.60;1.50;;;;;;;;;;7331953;19;153518;-17
2021/10/19 20:30:14;;;;;;;1.60;1.50;;;;;;;;;;7333661;19;161813;-14
2021/10/19 20:32:47;;;;;;;1.87;1.70;;;;;;;;;;7333789;19;162432;-15
2021/10/19 20:35:17;;;;;;;1.33;1.33;;;;;;;;;;7333456;19;154004;-16
2021/10/19 20:37:49;;;;;;;1.80;1.65;;;;;;;;;;7328934;19;153780;-15
2021/10/19 20:40:21;;;;;;;1.60;1.40;;;;;;;;;;7330279;19;162142;-15
2021/10/19 20:42:51;;;;;;;1.55;1.48;;;;;;;;;;7330368;19;162522;-13
2021/10/19 20:45:20;;;;;;;2.20;1.40;;;;;;;;;;7331698;19;153971;-17
2021/10/19 20:47:53;;;;;;;1.20;1.20;;;;;;;;;;7329228;19;153621;-14
2021/10/19 20:50:23;;;;;;;1.60;1.50;;;;;;;;;;7327540;19;162347;-16
2021/10/19 20:52:52;;;;;;;1.48;1.38;;;;;;;;;;7331066;19;162449;-16
2021/10/19 20:55:20;;;;;;;1.65;1.33;;;;;;;;;;7331523;19;153771;-15
2021/10/19 20:57:51;;;;;;;1.40;1.30;;;;;;;;;;7330339;19;153529;-15
2021/10/19 21:00:22;;;;;;;1.50;1.40;;;;;;;;;;7333112;19;161928;-16
2021/10/19 21:02:50;;;;;;;1.48;1.30;;;;;;;;;;7329027;19;162383;-14
2021/10/19 21:05:19;;;;;;;1.30;1.30;;;;;;;;;;7329321;19;154218;-14
2021/10/19 21:07:47;;;;;;;2.10;1.60;;;;;;;;;;7325725;19;153521;-14
2021/10/19 21:10:16;;;;;;;1.23;1.23;;;;;;;;;;7327582;19;162196;-14
2021/10/19 21:12:44;;;;;;;1.20;1.20;;;;;;;;;;7327840;19;162360;-15
2021/10/19 21:15:16;;;;;;;1.42;1.23;;;;;;;;;;7328956;19;154013;-17
2021/10/19 21:17:46;;;;;;;1.50;1.40;;;;;;;;;;7327622;19;153706;-15
2021/10/19 21:20:16;;;;;;;1.10;1.10;;;;;;;;;;7328234;19;161818;-16
2021/10/19 21:22:45;;;;;;;1.50;1.40;;;;;;;;;;7327385;19;162452;-14
2021/10/19 21:25:14;;;;;;;1.55;1.30;;;;;;;;;;7327533;19;154329;-15
2021/10/19 21:27:43;;;;;;;1.40;1.30;;;;;;;;;;7326736;19;153633;-15
2021/10/19 21:30:13;;;;;;;1.00;1.00;;;;;;;;;;7327896;19;161786;-17
2021/10/19 21:32:42;;;;;;;1.00;1.00;;;;;;;;;;7327473;19;162561;-16
2021/10/19 21:35:15;;;;;;;1.83;1.23;;;;;;;;;;7327209;19;154241;-15
2021/10/19 21:37:46;;;;;;;1.08;1.08;;;;;;;;;;7328122;19;153557;-13
2021/10/19 21:40:14;;;;;;;1.60;1.50;;;;;;;;;;7327898;19;161949;-14
2021/10/19 21:42:43;;;;;;;1.20;1.20;;;;;;;;;;7326858;19;162414;-17
2021/10/19 21:45:12;;;;;;;1.10;1.10;;;;;;;;;;7327991;19;154022;-16
2021/10/19 21:47:41;;;;;;;1.10;1.10;;;;;;;;;;7326302;19;153534;-14
2021/10/19 21:50:10;;;;;;;1.10;1.00;;;;;;;;;;7327526;19;161896;-17
2021/10/19 21:52:38;;;;;;;1.13;1.13;;;;;;;;;;7325962;19;162814;-14
2021/10/19 21:55:08;;;;;;;1.27;1.17;;;;;;;;;;7327519;19;154328;-15
2021/10/19 21:57:36;;;;;;;1.20;1.20;;;;;;;;;;7326326;19;153621;-15
2021/10/19 22:00:34;;;;;;;1.05;1.05;;;;;;;;;;7327018;19;162146;-12
2021/10/19 22:03:06;;;;;;;1.40;1.30;;;;;;;;;;7326671;19;162735;-15
2021/10/19 22:05:35;;;;;;;1.20;1.20;;;;;;;;;;7326072;19;153952;-15
2021/10/19 22:08:04;;;;;;;1.10;1.10;;;;;;;;;;7326799;19;154722;-17
2021/10/19 22:10:33;;;;;;;1.00;1.00;;;;;;;;;;7325398;19;161937;-15
2021/10/19 22:13:01;;;;;;;1.02;1.02;;;;;;;;;;7328434;19;162573;-14
2021/10/19 22:15:31;;;;;;;1.00;1.00;;;;;;;;;;7333097;19;153812;-15
2021/10/19 22:18:03;;;;;;;1.10;1.10;;;;;;;;;;7334115;19;153650;-14
2021/10/19 22:20:34;;;;;;;1.20;1.20;;;;;;;;;;7327254;19;161843;-15
2021/10/19 22:23:04;;;;;;;1.50;1.33;;;;;;;;;;7334312;19;162711;-17
2021/10/19 22:28:20;;;;;;;1.25;1.10;;;;;;;;;;7332965;19;153720;-18
2021/10/19 22:30:48;;;;;;;1.00;1.00;;;;;;;;;;7332357;19;162526;-15
2021/10/19 22:33:36;;;;;;;1.00;1.00;;;;;;;;;;7327625;19;165336;-13
2021/10/19 22:36:05;;;;;;;1.00;1.00;;;;;;;;;;7330721;19;154013;-15
2021/10/19 22:38:32;;;;;;;0.90;0.90;;;;;;;;;;7329087;19;155233;-13
2021/10/19 22:41:00;;;;;;;1.13;1.13;;;;;;;;;;7331758;19;161946;-17
2021/10/19 22:43:29;;;;;;;1.23;1.20;;;;;;;;;;7330949;19;162422;-17
2021/10/19 22:46:01;;;;;;;1.05;1.05;;;;;;;;;;7331594;19;154136;-14
2021/10/19 22:48:30;;;;;;;1.10;1.10;;;;;;;;;;7328682;19;155686;-17
2021/10/19 22:51:00;;;;;;;1.50;1.00;;;;;;;;;;7332021;19;161912;-17
2021/10/19 22:53:28;;;;;;;0.90;0.90;;;;;;;;;;7331895;19;162723;-17
2021/10/19 22:55:58;;;;;;;1.15;1.15;;;;;;;;;;7328885;19;154410;-16
2021/10/19 22:58:26;;;;;;;0.90;0.90;;;;;;;;;;7330150;19;153554;-14
2021/10/19 23:00:54;;;;;;;1.00;1.00;;;;;;;;;;7329217;19;162064;-16
2021/10/19 23:03:22;;;;;;;1.17;1.17;;;;;;;;;;7329726;19;162365;-15
2021/10/19 23:05:50;;;;;;;1.00;1.00;;;;;;;;;;7332749;19;153897;-14
2021/10/19 23:08:18;;;;;;;1.00;1.00;;;;;;;;;;7332162;19;153776;-15
2021/10/19 23:10:46;;;;;;;1.00;1.00;;;;;;;;;;7334359;19;162163;-15